createdAt,value
2018-06-04T01:30:59.477Z,0.00
2018-06-04T01:31:00.050Z,0.00
2018-06-04T01:31:00.651Z,0.00
2018-06-04T01:31:01.250Z,0.00
2018-06-04T01:31:01.850Z,0.00
2018-06-04T01:31:02.452Z,0.00
2018-06-04T01:31:03.050Z,0.00
2018-06-04T01:31:03.654Z,0.00
2018-06-04T01:31:57.130Z,0.00
2018-06-04T01:31:57.702Z,0.00
2018-06-04T01:31:58.301Z,0.00
2018-06-04T01:31:58.901Z,0.00
2018-06-04T01:31:59.500Z,0.00
2018-06-04T01:32:00.102Z,0.00
2018-06-04T01:32:00.704Z,0.00
2018-06-04T01:32:01.305Z,0.00
2018-06-04T01:32:54.780Z,0.00
2018-06-04T01:32:55.354Z,0.00
2018-06-04T01:32:55.954Z,0.00
2018-06-04T01:32:56.554Z,0.00
2018-06-04T01:32:57.154Z,0.00
2018-06-04T01:32:57.755Z,0.00
2018-06-04T01:32:58.353Z,0.00
2018-06-04T01:32:58.954Z,0.00
2018-06-04T01:33:52.433Z,0.00
2018-06-04T01:33:53.007Z,0.00
2018-06-04T01:33:53.606Z,0.00
2018-06-04T01:33:54.206Z,0.00
2018-06-04T01:33:54.807Z,0.00
2018-06-04T01:33:55.407Z,0.00
2018-06-04T01:33:56.006Z,0.00
2018-06-04T01:33:56.608Z,0.00
2018-06-04T01:34:51.117Z,0.00
2018-06-04T01:34:51.681Z,0.00
2018-06-04T01:34:52.281Z,0.00
2018-06-04T01:34:52.882Z,0.00
2018-06-04T01:34:53.482Z,0.00
2018-06-04T01:34:54.081Z,0.00
2018-06-04T01:34:54.684Z,0.00
2018-06-04T01:34:55.281Z,0.00
2018-06-04T01:35:48.763Z,0.00
2018-06-04T01:35:49.335Z,0.00
2018-06-04T01:35:49.935Z,0.00
2018-06-04T01:35:50.535Z,0.00
2018-06-04T01:35:51.134Z,0.00
2018-06-04T01:35:51.734Z,0.00
2018-06-04T01:35:52.336Z,0.00
2018-06-04T01:35:52.932Z,0.00
2018-06-04T01:36:46.414Z,0.00
2018-06-04T01:36:46.987Z,0.00
2018-06-04T01:36:47.587Z,0.00
2018-06-04T01:36:48.189Z,0.00
2018-06-04T01:36:48.788Z,0.00
2018-06-04T01:36:49.389Z,0.00
2018-06-04T01:36:49.987Z,0.00
2018-06-04T01:36:50.591Z,0.00
2018-06-04T01:37:45.091Z,0.00
2018-06-04T01:37:45.661Z,0.00
2018-06-04T01:37:46.265Z,0.00
2018-06-04T01:37:46.862Z,0.00
2018-06-04T01:37:47.460Z,0.00
2018-06-04T01:37:48.060Z,0.00
2018-06-04T01:37:48.661Z,0.00
2018-06-04T01:37:49.261Z,0.00
2018-06-04T01:38:43.766Z,0.00
2018-06-04T01:38:44.337Z,0.00
2018-06-04T01:38:44.938Z,0.00
2018-06-04T01:38:45.539Z,0.00
2018-06-04T01:38:46.139Z,0.00
2018-06-04T01:38:46.738Z,0.00
2018-06-04T01:38:47.337Z,0.00
2018-06-04T01:38:47.938Z,0.00
2018-06-04T01:39:41.420Z,0.00
2018-06-04T01:39:41.991Z,0.00
2018-06-04T01:39:42.592Z,0.00
2018-06-04T01:39:43.193Z,0.00
2018-06-04T01:39:43.791Z,0.00
2018-06-04T01:39:44.390Z,0.00
2018-06-04T01:39:44.991Z,0.00
2018-06-04T01:39:45.591Z,0.00
2018-06-04T01:40:39.071Z,0.00
2018-06-04T01:40:39.642Z,0.00
2018-06-04T01:40:40.244Z,0.00
2018-06-04T01:40:40.844Z,0.00
2018-06-04T01:40:41.442Z,0.00
2018-06-04T01:40:42.042Z,0.00
2018-06-04T01:40:42.649Z,0.00
2018-06-04T01:40:43.242Z,0.00
2018-06-04T01:41:36.724Z,0.00
2018-06-04T01:41:37.294Z,0.00
2018-06-04T01:41:37.895Z,0.00
2018-06-04T01:41:38.495Z,0.00
2018-06-04T01:41:39.095Z,0.00
2018-06-04T01:41:39.694Z,0.00
2018-06-04T01:41:40.294Z,0.00
2018-06-04T01:41:40.893Z,0.00
2018-06-04T01:42:34.373Z,0.00
2018-06-04T01:42:34.951Z,0.00
2018-06-04T01:42:35.547Z,0.00
2018-06-04T01:42:36.149Z,0.00
2018-06-04T01:42:36.747Z,0.00
2018-06-04T01:42:37.348Z,0.00
2018-06-04T01:42:37.947Z,0.00
2018-06-04T01:42:38.546Z,0.00
2018-06-04T01:43:32.026Z,0.00
2018-06-04T01:43:32.598Z,0.00
2018-06-04T01:43:33.199Z,0.00
2018-06-04T01:43:33.803Z,0.00
2018-06-04T01:43:34.398Z,0.00
2018-06-04T01:43:34.997Z,0.00
2018-06-04T01:43:35.600Z,0.00
2018-06-04T01:43:36.198Z,0.00
2018-06-04T01:44:29.678Z,0.00
2018-06-04T01:44:30.250Z,0.00
2018-06-04T01:44:30.851Z,0.00
2018-06-04T01:44:31.451Z,0.00
2018-06-04T01:44:32.051Z,0.00
2018-06-04T01:44:32.649Z,0.00
2018-06-04T01:44:33.249Z,0.00
2018-06-04T01:44:33.849Z,0.00
2018-06-04T01:45:27.329Z,0.00
2018-06-04T01:45:27.904Z,0.00
2018-06-04T01:45:28.502Z,0.00
2018-06-04T01:45:29.102Z,0.00
2018-06-04T01:45:29.705Z,0.00
2018-06-04T01:45:30.301Z,0.00
2018-06-04T01:45:30.904Z,0.00
2018-06-04T01:45:31.500Z,0.00
2018-06-04T01:46:26.005Z,0.00
2018-06-04T01:46:26.577Z,0.00
2018-06-04T01:46:27.180Z,0.00
2018-06-04T01:46:27.779Z,0.00
2018-06-04T01:46:28.377Z,0.00
2018-06-04T01:46:28.977Z,0.00
2018-06-04T01:46:29.577Z,0.00
2018-06-04T01:46:30.177Z,0.00
2018-06-04T01:47:24.679Z,0.00
2018-06-04T01:47:25.253Z,0.00
2018-06-04T01:47:25.853Z,0.00
2018-06-04T01:47:26.454Z,0.00
2018-06-04T01:47:27.052Z,0.00
2018-06-04T01:47:27.652Z,0.00
2018-06-04T01:47:28.251Z,0.00
2018-06-04T01:47:28.852Z,0.00
2018-06-04T01:48:22.334Z,0.00
2018-06-04T01:48:22.906Z,0.00
2018-06-04T01:48:23.504Z,0.00
2018-06-04T01:48:24.106Z,0.00
2018-06-04T01:48:24.708Z,0.00
2018-06-04T01:48:25.305Z,0.00
2018-06-04T01:48:25.909Z,0.00
2018-06-04T01:48:26.504Z,0.00
2018-06-04T01:49:21.007Z,0.00
2018-06-04T01:49:21.583Z,0.00
2018-06-04T01:49:22.180Z,0.00
2018-06-04T01:49:22.780Z,0.00
2018-06-04T01:49:23.380Z,0.00
2018-06-04T01:49:23.996Z,0.00
2018-06-04T01:49:24.580Z,0.00
2018-06-04T01:49:25.178Z,0.00
2018-06-04T01:50:18.661Z,0.00
2018-06-04T01:50:19.234Z,0.00
2018-06-04T01:50:19.833Z,0.00
2018-06-04T01:50:20.433Z,0.00
2018-06-04T01:50:21.034Z,0.00
2018-06-04T01:50:21.633Z,0.00
2018-06-04T01:50:22.232Z,0.00
2018-06-04T01:50:22.833Z,0.00
2018-06-04T01:51:16.312Z,0.00
2018-06-04T01:51:16.884Z,0.00
2018-06-04T01:51:17.486Z,0.00
2018-06-04T01:51:18.086Z,0.00
2018-06-04T01:51:18.687Z,0.00
2018-06-04T01:51:19.287Z,0.00
2018-06-04T01:51:19.887Z,0.00
2018-06-04T01:51:20.483Z,0.00
2018-06-04T01:52:13.969Z,0.00
2018-06-04T01:52:14.537Z,0.00
2018-06-04T01:52:15.138Z,0.00
2018-06-04T01:52:15.736Z,0.00
2018-06-04T01:52:16.338Z,0.00
2018-06-04T01:52:16.937Z,0.00
2018-06-04T01:52:17.536Z,0.00
2018-06-04T01:52:18.153Z,0.00
2018-06-04T01:53:12.640Z,0.00
2018-06-04T01:53:13.214Z,0.00
2018-06-04T01:53:13.816Z,0.00
2018-06-04T01:53:14.413Z,0.00
2018-06-04T01:53:15.016Z,0.00
2018-06-04T01:53:15.611Z,0.00
2018-06-04T01:53:16.211Z,0.00
2018-06-04T01:53:16.812Z,0.00
2018-06-04T01:54:10.291Z,0.00
2018-06-04T01:54:10.864Z,0.00
2018-06-04T01:54:11.464Z,0.00
2018-06-04T01:54:12.064Z,0.00
2018-06-04T01:54:12.668Z,0.00
2018-06-04T01:54:13.264Z,0.00
2018-06-04T01:54:13.862Z,0.00
2018-06-04T01:54:14.466Z,0.00
2018-06-04T01:55:07.944Z,0.00
2018-06-04T01:55:08.516Z,0.00
2018-06-04T01:55:09.117Z,0.00
2018-06-04T01:55:09.716Z,0.00
2018-06-04T01:55:10.321Z,0.00
2018-06-04T01:55:10.919Z,0.00
2018-06-04T01:55:11.517Z,0.00
2018-06-04T01:55:12.126Z,0.00
2018-06-04T01:56:05.596Z,0.00
2018-06-04T01:56:06.167Z,0.00
2018-06-04T01:56:06.768Z,0.00
2018-06-04T01:56:07.372Z,0.00
2018-06-04T01:56:07.972Z,0.00
2018-06-04T01:56:08.569Z,0.00
2018-06-04T01:56:09.172Z,0.00
2018-06-04T01:56:09.767Z,0.00
2018-06-04T01:57:04.271Z,0.00
2018-06-04T01:57:04.842Z,0.00
2018-06-04T01:57:05.441Z,0.00
2018-06-04T01:57:06.043Z,0.00
2018-06-04T01:57:06.643Z,0.00
2018-06-04T01:57:07.242Z,0.00
2018-06-04T01:57:07.843Z,0.00
2018-06-04T01:57:08.443Z,0.00
2018-06-04T01:58:02.946Z,0.00
2018-06-04T01:58:03.519Z,0.00
2018-06-04T01:58:04.119Z,0.00
2018-06-04T01:58:04.718Z,0.00
2018-06-04T01:58:05.322Z,0.00
2018-06-04T01:58:05.918Z,0.00
2018-06-04T01:58:06.519Z,0.00
2018-06-04T01:58:07.121Z,0.00
2018-06-04T01:59:01.623Z,0.00
2018-06-04T01:59:02.194Z,0.00
2018-06-04T01:59:02.794Z,0.00
2018-06-04T01:59:03.395Z,0.00
2018-06-04T01:59:03.995Z,0.00
2018-06-04T01:59:04.597Z,0.00
2018-06-04T01:59:05.194Z,0.00
2018-06-04T01:59:05.793Z,0.00
2018-06-04T01:59:59.275Z,0.00
2018-06-04T01:59:59.850Z,0.00
2018-06-04T02:00:00.446Z,0.00
2018-06-04T02:00:01.046Z,0.00
2018-06-04T02:00:01.650Z,0.00
2018-06-04T02:00:02.247Z,0.00
2018-06-04T02:00:02.847Z,0.00
2018-06-04T02:00:03.447Z,0.00
2018-06-04T02:00:56.927Z,0.00
2018-06-04T02:00:57.499Z,0.00
2018-06-04T02:00:58.099Z,0.00
2018-06-04T02:00:58.699Z,0.00
2018-06-04T02:00:59.300Z,0.00
2018-06-04T02:00:59.899Z,0.00
2018-06-04T02:01:00.499Z,0.00
2018-06-04T02:01:01.098Z,0.00
2018-06-04T02:01:54.577Z,0.00
2018-06-04T02:01:55.150Z,0.00
2018-06-04T02:01:55.754Z,0.00
2018-06-04T02:01:56.349Z,0.00
2018-06-04T02:01:56.952Z,0.00
2018-06-04T02:01:57.550Z,0.00
2018-06-04T02:01:58.150Z,0.00
2018-06-04T02:01:58.750Z,0.00
2018-06-04T02:02:53.257Z,0.00
2018-06-04T02:02:53.826Z,0.00
2018-06-04T02:02:54.425Z,0.00
2018-06-04T02:02:55.025Z,0.00
2018-06-04T02:02:55.631Z,0.00
2018-06-04T02:02:56.224Z,0.00
2018-06-04T02:02:56.827Z,0.00
2018-06-04T02:02:57.425Z,0.00
2018-06-04T02:03:50.905Z,0.00
2018-06-04T02:03:51.486Z,0.00
2018-06-04T02:03:52.078Z,0.00
2018-06-04T02:03:52.677Z,0.00
2018-06-04T02:03:53.280Z,0.00
2018-06-04T02:03:53.878Z,0.00
2018-06-04T02:03:54.477Z,0.00
2018-06-04T02:03:55.077Z,0.00
2018-06-04T02:04:49.593Z,0.00
2018-06-04T02:04:50.152Z,0.00
2018-06-04T02:04:50.751Z,0.00
2018-06-04T02:04:51.353Z,0.00
2018-06-04T02:04:51.959Z,0.00
2018-06-04T02:04:52.553Z,0.00
2018-06-04T02:04:53.151Z,0.00
2018-06-04T02:04:53.752Z,0.00
2018-06-04T02:05:47.237Z,0.00
2018-06-04T02:05:47.803Z,0.00
2018-06-04T02:05:48.406Z,0.00
2018-06-04T02:05:49.003Z,0.00
2018-06-04T02:05:49.604Z,0.00
2018-06-04T02:05:50.203Z,0.00
2018-06-04T02:05:50.804Z,0.00
2018-06-04T02:05:51.403Z,0.00
2018-06-04T02:06:45.908Z,0.00
2018-06-04T02:06:46.481Z,0.00
2018-06-04T02:06:47.084Z,0.00
2018-06-04T02:06:47.681Z,0.00
2018-06-04T02:06:48.283Z,0.00
2018-06-04T02:06:48.880Z,0.00
2018-06-04T02:06:49.480Z,0.00
2018-06-04T02:06:50.081Z,0.00
2018-06-04T02:07:44.586Z,0.00
2018-06-04T02:07:45.156Z,0.00
2018-06-04T02:07:45.756Z,0.00
2018-06-04T02:07:46.356Z,0.00
2018-06-04T02:07:46.962Z,0.00
2018-06-04T02:07:47.556Z,0.00
2018-06-04T02:07:48.157Z,0.00
2018-06-04T02:07:48.760Z,0.00
2018-06-04T02:08:42.235Z,0.00
2018-06-04T02:08:42.807Z,0.00
2018-06-04T02:08:43.408Z,0.00
2018-06-04T02:08:44.008Z,0.00
2018-06-04T02:08:44.609Z,0.00
2018-06-04T02:08:45.212Z,0.00
2018-06-04T02:08:45.807Z,0.00
2018-06-04T02:08:46.407Z,0.00
2018-06-04T02:09:41.730Z,0.00
2018-06-04T02:09:42.302Z,0.00
2018-06-04T02:09:42.902Z,0.00
2018-06-04T02:09:43.506Z,0.00
2018-06-04T02:09:44.104Z,0.00
2018-06-04T02:09:44.702Z,0.00
2018-06-04T02:09:45.302Z,0.00
2018-06-04T02:09:45.905Z,0.00
2018-06-04T02:10:39.382Z,0.00
2018-06-04T02:10:39.956Z,0.00
2018-06-04T02:10:40.555Z,0.00
2018-06-04T02:10:41.155Z,0.00
2018-06-04T02:10:41.757Z,0.00
2018-06-04T02:10:42.359Z,0.00
2018-06-04T02:10:42.954Z,0.00
2018-06-04T02:10:43.555Z,0.00
2018-06-04T02:11:37.035Z,0.00
2018-06-04T02:11:37.607Z,0.00
2018-06-04T02:11:38.206Z,0.00
2018-06-04T02:11:38.806Z,0.00
2018-06-04T02:11:39.409Z,0.00
2018-06-04T02:11:40.007Z,0.00
2018-06-04T02:11:40.606Z,0.00
2018-06-04T02:11:41.206Z,0.00
2018-06-04T02:12:34.686Z,0.00
2018-06-04T02:12:35.259Z,0.00
2018-06-04T02:12:35.858Z,0.00
2018-06-04T02:12:36.459Z,0.00
2018-06-04T02:12:37.060Z,0.00
2018-06-04T02:12:37.658Z,0.00
2018-06-04T02:12:38.258Z,0.00
2018-06-04T02:12:38.860Z,0.00
2018-06-04T02:13:32.338Z,0.00
2018-06-04T02:13:32.910Z,0.00
2018-06-04T02:13:33.510Z,0.00
2018-06-04T02:13:34.110Z,0.00
2018-06-04T02:13:34.711Z,0.00
2018-06-04T02:13:35.311Z,0.00
2018-06-04T02:13:35.911Z,0.00
2018-06-04T02:13:36.512Z,0.00
2018-06-04T02:14:31.015Z,0.00
2018-06-04T02:14:31.585Z,0.00
2018-06-04T02:14:32.185Z,0.00
2018-06-04T02:14:32.785Z,0.00
2018-06-04T02:14:33.388Z,0.00
2018-06-04T02:14:33.985Z,0.00
2018-06-04T02:14:34.583Z,0.00
2018-06-04T02:14:35.192Z,0.00
2018-06-04T02:15:29.688Z,0.00
2018-06-04T02:15:30.264Z,0.00
2018-06-04T02:15:30.858Z,0.00
2018-06-04T02:15:31.460Z,0.00
2018-06-04T02:15:32.061Z,0.00
2018-06-04T02:15:32.658Z,0.00
2018-06-04T02:15:33.258Z,0.00
2018-06-04T02:15:33.861Z,0.00
2018-06-04T02:16:28.366Z,0.00
2018-06-04T02:16:28.938Z,0.00
2018-06-04T02:16:29.537Z,0.00
2018-06-04T02:16:30.136Z,0.00
2018-06-04T02:16:30.739Z,0.00
2018-06-04T02:16:31.337Z,0.00
2018-06-04T02:16:31.936Z,0.00
2018-06-04T02:16:32.538Z,0.00
2018-06-04T02:17:27.039Z,0.00
2018-06-04T02:17:27.612Z,0.00
2018-06-04T02:17:28.213Z,0.00
2018-06-04T02:17:28.812Z,0.00
2018-06-04T02:17:29.416Z,0.00
2018-06-04T02:17:30.012Z,0.00
2018-06-04T02:17:30.614Z,0.00
2018-06-04T02:17:31.212Z,0.00
2018-06-04T02:18:25.716Z,0.00
2018-06-04T02:18:26.288Z,0.00
2018-06-04T02:18:26.888Z,0.00
2018-06-04T02:18:27.487Z,0.00
2018-06-04T02:18:28.090Z,0.00
2018-06-04T02:18:28.687Z,0.00
2018-06-04T02:18:29.286Z,0.00
2018-06-04T02:18:29.887Z,0.00
2018-06-04T02:19:24.391Z,0.00
2018-06-04T02:19:24.966Z,0.00
2018-06-04T02:19:25.563Z,0.00
2018-06-04T02:19:26.163Z,0.00
2018-06-04T02:19:26.768Z,0.00
2018-06-04T02:19:27.364Z,0.00
2018-06-04T02:19:27.963Z,0.00
2018-06-04T02:19:28.563Z,0.00
2018-06-04T02:20:23.066Z,0.00
2018-06-04T02:20:23.640Z,0.00
2018-06-04T02:20:24.241Z,0.00
2018-06-04T02:20:24.839Z,0.00
2018-06-04T02:20:25.442Z,0.00
2018-06-04T02:20:26.039Z,0.00
2018-06-04T02:20:26.638Z,0.00
2018-06-04T02:20:27.240Z,0.00
2018-06-04T02:21:21.743Z,0.00
2018-06-04T02:21:22.314Z,0.00
2018-06-04T02:21:22.915Z,0.00
2018-06-04T02:21:23.516Z,0.00
2018-06-04T02:21:24.117Z,0.00
2018-06-04T02:21:24.715Z,0.00
2018-06-04T02:21:25.315Z,0.00
2018-06-04T02:21:25.914Z,0.00
2018-06-04T02:22:19.395Z,0.00
2018-06-04T02:22:19.968Z,0.00
2018-06-04T02:22:20.569Z,0.00
2018-06-04T02:22:21.168Z,0.00
2018-06-04T02:22:21.769Z,0.00
2018-06-04T02:22:22.369Z,0.00
2018-06-04T02:22:22.968Z,0.00
2018-06-04T02:22:23.571Z,0.00
2018-06-04T02:23:18.069Z,0.00
2018-06-04T02:23:18.644Z,0.00
2018-06-04T02:23:19.244Z,0.00
2018-06-04T02:23:19.843Z,0.00
2018-06-04T02:23:20.445Z,0.00
2018-06-04T02:23:21.042Z,0.00
2018-06-04T02:23:21.642Z,0.00
2018-06-04T02:23:22.243Z,0.00
2018-06-04T02:24:15.721Z,0.00
2018-06-04T02:24:16.295Z,0.00
2018-06-04T02:24:16.895Z,0.00
2018-06-04T02:24:17.496Z,0.00
2018-06-04T02:24:18.096Z,0.00
2018-06-04T02:24:18.694Z,0.00
2018-06-04T02:24:19.295Z,0.00
2018-06-04T02:24:19.894Z,0.00
2018-06-04T02:25:13.374Z,0.00
2018-06-04T02:25:13.947Z,0.00
2018-06-04T02:25:14.546Z,0.00
2018-06-04T02:25:15.147Z,0.00
2018-06-04T02:25:15.747Z,0.00
2018-06-04T02:25:16.347Z,0.00
2018-06-04T02:25:16.947Z,0.00
2018-06-04T02:25:17.546Z,0.00
2018-06-04T02:26:11.025Z,0.00
2018-06-04T02:26:11.601Z,0.00
2018-06-04T02:26:12.198Z,0.00
2018-06-04T02:26:12.797Z,0.00
2018-06-04T02:26:13.403Z,0.00
2018-06-04T02:26:13.999Z,0.00
2018-06-04T02:26:14.598Z,0.00
2018-06-04T02:26:15.198Z,0.00
2018-06-04T02:27:09.702Z,4.00
2018-06-04T02:27:10.277Z,4.00
2018-06-04T02:27:10.872Z,4.00
2018-06-04T02:27:11.473Z,4.00
2018-06-04T02:27:12.077Z,4.00
2018-06-04T02:27:12.673Z,4.00
2018-06-04T02:27:13.272Z,4.00
2018-06-04T02:27:13.872Z,4.00
2018-06-04T02:28:08.376Z,0.00
2018-06-04T02:28:08.952Z,0.00
2018-06-04T02:28:09.550Z,0.00
2018-06-04T02:28:10.148Z,0.00
2018-06-04T02:28:10.752Z,0.00
2018-06-04T02:28:11.351Z,0.00
2018-06-04T02:28:11.949Z,0.00
2018-06-04T02:28:12.547Z,0.00
2018-06-04T02:29:06.028Z,0.00
2018-06-04T02:29:06.602Z,0.00
2018-06-04T02:29:07.203Z,0.00
2018-06-04T02:29:07.802Z,0.00
2018-06-04T02:29:08.403Z,0.00
2018-06-04T02:29:09.002Z,0.00
2018-06-04T02:29:09.601Z,0.00
2018-06-04T02:29:10.201Z,0.00
2018-06-04T02:30:04.711Z,0.00
2018-06-04T02:30:05.277Z,0.00
2018-06-04T02:30:05.878Z,0.00
2018-06-04T02:30:06.478Z,0.00
2018-06-04T02:30:07.076Z,0.00
2018-06-04T02:30:07.707Z,0.00
2018-06-04T02:30:08.279Z,0.00
2018-06-04T02:30:08.877Z,0.00
2018-06-04T02:31:02.358Z,4.00
2018-06-04T02:31:02.929Z,4.00
2018-06-04T02:31:03.529Z,4.00
2018-06-04T02:31:04.134Z,4.00
2018-06-04T02:31:04.729Z,4.00
2018-06-04T02:31:05.329Z,4.00
2018-06-04T02:31:05.929Z,4.00
2018-06-04T02:31:06.529Z,4.00
2018-06-04T02:32:01.033Z,4.00
2018-06-04T02:32:01.604Z,4.00
2018-06-04T02:32:02.205Z,4.00
2018-06-04T02:32:02.805Z,4.00
2018-06-04T02:32:03.406Z,4.00
2018-06-04T02:32:04.004Z,4.00
2018-06-04T02:32:04.607Z,4.00
2018-06-04T02:32:05.205Z,4.00
2018-06-04T02:32:58.685Z,0.00
2018-06-04T02:32:59.255Z,0.00
2018-06-04T02:32:59.857Z,0.00
2018-06-04T02:33:00.456Z,0.00
2018-06-04T02:33:01.056Z,0.00
2018-06-04T02:33:01.656Z,0.00
2018-06-04T02:33:02.257Z,0.00
2018-06-04T02:33:02.856Z,0.00
2018-06-04T02:33:56.336Z,4.00
2018-06-04T02:33:56.909Z,4.00
2018-06-04T02:33:57.510Z,0.00
2018-06-04T02:33:58.110Z,4.00
2018-06-04T02:33:58.709Z,4.00
2018-06-04T02:33:59.309Z,4.00
2018-06-04T02:33:59.909Z,4.00
2018-06-04T02:34:00.508Z,4.00
2018-06-04T02:34:55.011Z,4.00
2018-06-04T02:34:55.584Z,4.00
2018-06-04T02:34:56.182Z,4.00
2018-06-04T02:34:56.783Z,4.00
2018-06-04T02:34:57.385Z,4.00
2018-06-04T02:34:57.982Z,4.00
2018-06-04T02:34:58.583Z,4.00
2018-06-04T02:34:59.193Z,4.00
2018-06-04T02:35:53.686Z,4.00
2018-06-04T02:35:54.259Z,4.00
2018-06-04T02:35:54.861Z,4.00
2018-06-04T02:35:55.460Z,4.00
2018-06-04T02:35:56.059Z,4.00
2018-06-04T02:35:56.661Z,4.00
2018-06-04T02:35:57.259Z,4.00
2018-06-04T02:35:57.859Z,4.00
2018-06-04T02:36:51.334Z,4.00
2018-06-04T02:36:51.908Z,4.00
2018-06-04T02:36:52.508Z,4.00
2018-06-04T02:36:53.111Z,4.00
2018-06-04T02:36:53.708Z,4.00
2018-06-04T02:36:54.307Z,4.00
2018-06-04T02:36:54.907Z,4.00
2018-06-04T02:36:55.508Z,4.00
2018-06-04T02:37:50.007Z,4.00
2018-06-04T02:37:50.638Z,4.00
2018-06-04T02:37:51.183Z,4.00
2018-06-04T02:37:51.782Z,4.00
2018-06-04T02:37:52.386Z,4.00
2018-06-04T02:37:52.982Z,4.00
2018-06-04T02:37:53.581Z,4.00
2018-06-04T02:37:54.182Z,4.00
2018-06-04T02:38:47.662Z,4.00
2018-06-04T02:38:48.237Z,4.00
2018-06-04T02:38:48.836Z,4.00
2018-06-04T02:38:49.435Z,4.00
2018-06-04T02:38:50.035Z,4.00
2018-06-04T02:38:50.636Z,4.00
2018-06-04T02:38:51.237Z,4.00
2018-06-04T02:38:51.833Z,4.00
2018-06-04T02:39:45.311Z,4.00
2018-06-04T02:39:45.888Z,4.00
2018-06-04T02:39:46.486Z,4.00
2018-06-04T02:39:47.088Z,4.00
2018-06-04T02:39:47.686Z,4.00
2018-06-04T02:39:48.291Z,4.00
2018-06-04T02:39:48.888Z,4.00
2018-06-04T02:39:49.486Z,8.00
2018-06-04T02:40:43.991Z,8.00
2018-06-04T02:40:44.561Z,8.00
2018-06-04T02:40:45.162Z,4.00
2018-06-04T02:40:45.767Z,8.00
2018-06-04T02:40:46.362Z,4.00
2018-06-04T02:40:46.961Z,8.00
2018-06-04T02:40:47.561Z,8.00
2018-06-04T02:40:48.161Z,4.00
2018-06-04T02:41:42.661Z,8.00
2018-06-04T02:41:43.238Z,8.00
2018-06-04T02:41:43.838Z,8.00
2018-06-04T02:41:44.445Z,8.00
2018-06-04T02:41:45.037Z,8.00
2018-06-04T02:41:45.639Z,8.00
2018-06-04T02:41:46.237Z,8.00
2018-06-04T02:41:46.838Z,8.00
2018-06-04T02:42:40.317Z,8.00
2018-06-04T02:42:40.891Z,8.00
2018-06-04T02:42:41.490Z,8.00
2018-06-04T02:42:42.091Z,8.00
2018-06-04T02:42:42.690Z,8.00
2018-06-04T02:42:43.290Z,8.00
2018-06-04T02:42:43.890Z,8.00
2018-06-04T02:42:44.491Z,8.00
2018-06-04T02:43:38.989Z,8.00
2018-06-04T02:43:39.565Z,8.00
2018-06-04T02:43:40.184Z,8.00
2018-06-04T02:43:40.764Z,8.00
2018-06-04T02:43:41.366Z,8.00
2018-06-04T02:43:41.964Z,8.00
2018-06-04T02:43:42.564Z,8.00
2018-06-04T02:43:43.170Z,8.00
2018-06-04T02:44:36.642Z,8.00
2018-06-04T02:44:37.219Z,8.00
2018-06-04T02:44:37.818Z,8.00
2018-06-04T02:44:38.417Z,8.00
2018-06-04T02:44:39.016Z,8.00
2018-06-04T02:44:39.616Z,8.00
2018-06-04T02:44:40.216Z,8.00
2018-06-04T02:44:40.815Z,8.00
2018-06-04T02:45:35.322Z,12.00
2018-06-04T02:45:35.893Z,12.00
2018-06-04T02:45:36.492Z,8.00
2018-06-04T02:45:37.092Z,12.00
2018-06-04T02:45:37.694Z,12.00
2018-06-04T02:45:38.291Z,8.00
2018-06-04T02:45:38.892Z,12.00
2018-06-04T02:45:39.491Z,8.00
2018-06-04T02:46:33.995Z,8.00
2018-06-04T02:46:34.567Z,8.00
2018-06-04T02:46:35.169Z,8.00
2018-06-04T02:46:35.766Z,8.00
2018-06-04T02:46:36.373Z,8.00
2018-06-04T02:46:36.967Z,8.00
2018-06-04T02:46:37.567Z,8.00
2018-06-04T02:46:38.167Z,8.00
2018-06-04T02:47:31.647Z,8.00
2018-06-04T02:47:32.220Z,8.00
2018-06-04T02:47:32.819Z,8.00
2018-06-04T02:47:33.420Z,8.00
2018-06-04T02:47:34.023Z,8.00
2018-06-04T02:47:34.620Z,8.00
2018-06-04T02:47:35.219Z,8.00
2018-06-04T02:47:35.820Z,8.00
2018-06-04T02:48:30.325Z,12.00
2018-06-04T02:48:30.897Z,12.00
2018-06-04T02:48:31.495Z,12.00
2018-06-04T02:48:32.095Z,12.00
2018-06-04T02:48:32.696Z,12.00
2018-06-04T02:48:33.294Z,12.00
2018-06-04T02:48:33.907Z,12.00
2018-06-04T02:48:34.495Z,12.00
2018-06-04T02:49:28.999Z,12.00
2018-06-04T02:49:29.571Z,12.00
2018-06-04T02:49:30.171Z,12.00
2018-06-04T02:49:30.776Z,12.00
2018-06-04T02:49:31.426Z,12.00
2018-06-04T02:49:31.969Z,12.00
2018-06-04T02:49:32.568Z,12.00
2018-06-04T02:49:33.168Z,12.00
2018-06-04T02:50:26.653Z,12.00
2018-06-04T02:50:27.226Z,12.00
2018-06-04T02:50:27.826Z,12.00
2018-06-04T02:50:28.426Z,12.00
2018-06-04T02:50:29.041Z,12.00
2018-06-04T02:50:29.624Z,12.00
2018-06-04T02:50:30.225Z,16.00
2018-06-04T02:50:30.825Z,16.00
2018-06-04T02:51:24.403Z,16.00
2018-06-04T02:51:24.979Z,16.00
2018-06-04T02:51:25.578Z,16.00
2018-06-04T02:51:26.181Z,16.00
2018-06-04T02:51:26.777Z,16.00
2018-06-04T02:51:27.378Z,16.00
2018-06-04T02:51:27.978Z,16.00
2018-06-04T02:51:28.578Z,16.00
2018-06-04T02:52:22.157Z,16.00
2018-06-04T02:52:22.733Z,16.00
2018-06-04T02:52:23.332Z,16.00
2018-06-04T02:52:23.932Z,16.00
2018-06-04T02:52:24.533Z,16.00
2018-06-04T02:52:25.132Z,16.00
2018-06-04T02:52:25.732Z,16.00
2018-06-04T02:52:26.330Z,16.00
2018-06-04T02:53:20.837Z,20.00
2018-06-04T02:53:21.406Z,20.00
2018-06-04T02:53:22.010Z,20.00
2018-06-04T02:53:22.606Z,20.00
2018-06-04T02:53:23.211Z,20.00
2018-06-04T02:53:23.805Z,20.00
2018-06-04T02:53:24.406Z,20.00
2018-06-04T02:53:25.008Z,20.00
2018-06-04T02:54:18.589Z,16.00
2018-06-04T02:54:19.161Z,16.00
2018-06-04T02:54:19.762Z,16.00
2018-06-04T02:54:20.361Z,16.00
2018-06-04T02:54:20.964Z,16.00
2018-06-04T02:54:21.561Z,20.00
2018-06-04T02:54:22.163Z,16.00
2018-06-04T02:54:22.761Z,20.00
2018-06-04T02:55:16.240Z,20.00
2018-06-04T02:55:16.813Z,20.00
2018-06-04T02:55:17.413Z,20.00
2018-06-04T02:55:18.014Z,20.00
2018-06-04T02:55:18.613Z,20.00
2018-06-04T02:55:19.212Z,20.00
2018-06-04T02:55:19.814Z,20.00
2018-06-04T02:55:20.412Z,20.00
2018-06-04T02:56:13.891Z,24.00
2018-06-04T02:56:14.465Z,24.00
2018-06-04T02:56:15.066Z,24.00
2018-06-04T02:56:15.665Z,24.00
2018-06-04T02:56:16.265Z,24.00
2018-06-04T02:56:16.864Z,24.00
2018-06-04T02:56:17.472Z,24.00
2018-06-04T02:56:18.063Z,24.00
2018-06-04T02:57:11.541Z,24.00
2018-06-04T02:57:12.122Z,24.00
2018-06-04T02:57:12.720Z,24.00
2018-06-04T02:57:13.316Z,24.00
2018-06-04T02:57:13.917Z,24.00
2018-06-04T02:57:14.515Z,24.00
2018-06-04T02:57:15.115Z,24.00
2018-06-04T02:57:15.717Z,24.00
2018-06-04T02:58:09.192Z,24.00
2018-06-04T02:58:09.769Z,24.00
2018-06-04T02:58:10.369Z,24.00
2018-06-04T02:58:10.973Z,24.00
2018-06-04T02:58:11.576Z,24.00
2018-06-04T02:58:12.169Z,24.00
2018-06-04T02:58:12.770Z,24.00
2018-06-04T02:58:13.368Z,24.00
2018-06-04T02:59:07.873Z,28.00
2018-06-04T02:59:08.452Z,28.00
2018-06-04T02:59:09.043Z,28.00
2018-06-04T02:59:09.642Z,28.00
2018-06-04T02:59:10.243Z,28.00
2018-06-04T02:59:10.843Z,28.00
2018-06-04T02:59:11.443Z,28.00
2018-06-04T02:59:12.042Z,32.00
2018-06-04T03:00:05.521Z,32.00
2018-06-04T03:00:06.097Z,32.00
2018-06-04T03:00:06.697Z,32.00
2018-06-04T03:00:07.296Z,32.00
2018-06-04T03:00:07.896Z,32.00
2018-06-04T03:00:08.498Z,32.00
2018-06-04T03:00:09.097Z,32.00
2018-06-04T03:00:09.696Z,32.00
2018-06-04T03:01:04.199Z,28.00
2018-06-04T03:01:04.771Z,28.00
2018-06-04T03:01:05.371Z,28.00
2018-06-04T03:01:05.971Z,28.00
2018-06-04T03:01:06.573Z,28.00
2018-06-04T03:01:07.171Z,28.00
2018-06-04T03:01:07.771Z,28.00
2018-06-04T03:01:08.370Z,28.00
2018-06-04T03:02:01.848Z,32.00
2018-06-04T03:02:02.423Z,32.00
2018-06-04T03:02:03.023Z,32.00
2018-06-04T03:02:03.625Z,32.00
2018-06-04T03:02:04.222Z,32.00
2018-06-04T03:02:04.821Z,32.00
2018-06-04T03:02:05.423Z,32.00
2018-06-04T03:02:06.023Z,32.00
2018-06-04T03:03:00.528Z,32.00
2018-06-04T03:03:01.099Z,32.00
2018-06-04T03:03:01.698Z,32.00
2018-06-04T03:03:02.298Z,32.00
2018-06-04T03:03:02.899Z,32.00
2018-06-04T03:03:03.498Z,32.00
2018-06-04T03:03:04.098Z,32.00
2018-06-04T03:03:04.697Z,32.00
2018-06-04T03:03:58.179Z,36.00
2018-06-04T03:03:58.748Z,36.00
2018-06-04T03:03:59.351Z,36.00
2018-06-04T03:03:59.948Z,36.00
2018-06-04T03:04:00.547Z,36.00
2018-06-04T03:04:01.148Z,36.00
2018-06-04T03:04:01.750Z,36.00
2018-06-04T03:04:02.348Z,36.00
2018-06-04T03:04:55.922Z,36.00
2018-06-04T03:04:56.424Z,36.00
2018-06-04T03:04:57.024Z,36.00
2018-06-04T03:04:57.625Z,40.00
2018-06-04T03:04:58.221Z,40.00
2018-06-04T03:04:58.822Z,40.00
2018-06-04T03:04:59.423Z,40.00
2018-06-04T03:05:00.021Z,36.00
2018-06-04T03:05:53.585Z,40.00
2018-06-04T03:05:54.157Z,40.00
2018-06-04T03:05:54.759Z,40.00
2018-06-04T03:05:55.357Z,40.00
2018-06-04T03:05:55.956Z,40.00
2018-06-04T03:05:56.558Z,40.00
2018-06-04T03:05:57.156Z,40.00
2018-06-04T03:05:57.756Z,40.00
2018-06-04T03:06:51.233Z,40.00
2018-06-04T03:06:51.812Z,40.00